createdAt,value
2023-04-17T00:01:00.290Z,7.2
2023-04-17T00:02:02.190Z,7.2
2023-04-17T00:03:05.181Z,7.2
2023-04-17T00:04:07.783Z,7.2
2023-04-17T00:05:09.869Z,7.2
2023-04-17T00:06:11.545Z,7.2
2023-04-17T00:07:13.131Z,7.2
2023-04-17T00:08:14.768Z,7.2
2023-04-17T00:09:16.294Z,7.2
2023-04-17T00:10:17.780Z,7.2
2023-04-17T00:11:20.460Z,7.2
2023-04-17T00:12:21.903Z,7.3
2023-04-17T00:13:23.483Z,7.3
2023-04-17T00:14:25.035Z,7.3
2023-04-17T00:15:26.456Z,7.3
2023-04-17T00:16:28.294Z,7.3
2023-04-17T00:17:29.995Z,7.3
2023-04-17T00:18:31.431Z,7.3
2023-04-17T00:19:32.909Z,7.3
2023-04-17T00:20:34.172Z,7.3
2023-04-17T00:21:35.640Z,7.3
2023-04-17T00:22:37.461Z,7.3
2023-04-17T00:23:39.014Z,7.3
2023-04-17T00:24:40.608Z,7.3
2023-04-17T00:25:42.045Z,7.2
2023-04-17T00:26:43.430Z,7.2
2023-04-17T00:27:44.708Z,7.2
2023-04-17T00:28:46.227Z,7.2
2023-04-17T00:29:47.773Z,7.2
2023-04-17T00:30:49.330Z,7.2
2023-04-17T00:31:51.331Z,7.2
2023-04-17T00:32:53.293Z,7.2
2023-04-17T00:33:54.722Z,7.2
2023-04-17T00:34:57.480Z,7.2
2023-04-17T00:35:59.067Z,7.2
2023-04-17T00:37:00.499Z,7.2
2023-04-17T00:38:01.985Z,7.2
2023-04-17T00:39:03.515Z,7.1
2023-04-17T00:40:05.087Z,7.2
2023-04-17T00:41:06.600Z,7.1
2023-04-17T00:42:08.129Z,7.2
2023-04-17T00:43:09.574Z,7.2
2023-04-17T00:44:11.088Z,7.2
2023-04-17T00:45:12.540Z,7.2
2023-04-17T00:46:14.534Z,7.1
2023-04-17T00:47:15.979Z,7.1
2023-04-17T00:48:17.568Z,7.1
2023-04-17T00:49:18.977Z,7.1
2023-04-17T00:50:20.534Z,7.1
2023-04-17T00:51:22.077Z,7.1
2023-04-17T00:52:23.641Z,7.1
2023-04-17T00:53:25.258Z,7.1
2023-04-17T00:54:26.858Z,7.1
2023-04-17T00:55:28.457Z,7.1
2023-04-17T00:56:30.011Z,7.1
2023-04-17T00:57:31.325Z,7.1
2023-04-17T00:58:32.870Z,7.2
2023-04-17T00:59:34.264Z,7.1
2023-04-17T01:00:35.791Z,7.1
2023-04-17T01:01:37.714Z,7.2
2023-04-17T01:02:40.656Z,7.2
2023-04-17T01:03:43.681Z,7.1
2023-04-17T01:04:45.226Z,7.1
2023-04-17T01:05:46.553Z,7.2
2023-04-17T01:06:48.203Z,7.2
2023-04-17T01:07:49.658Z,7.2
2023-04-17T01:08:51.112Z,7.2
2023-04-17T01:09:52.676Z,7.2
2023-04-17T01:10:54.196Z,7.2
2023-04-17T01:11:55.788Z,7.2
2023-04-17T01:12:57.201Z,7.2
2023-04-17T01:13:58.611Z,7.2
2023-04-17T01:15:00.052Z,7.2
2023-04-17T01:16:01.613Z,7.1
2023-04-17T01:17:03.929Z,7.1
2023-04-17T01:18:05.697Z,7.1
2023-04-17T01:19:07.219Z,7.1
2023-04-17T01:20:08.765Z,7.1
2023-04-17T01:21:10.087Z,7.1
2023-04-17T01:22:11.635Z,7.1
2023-04-17T01:23:13.308Z,7.1
2023-04-17T01:24:14.905Z,7.1
2023-04-17T01:25:16.497Z,7.1
2023-04-17T01:26:18.027Z,7.1
2023-04-17T01:27:19.679Z,7.1
2023-04-17T01:28:21.222Z,7.1
2023-04-17T01:29:22.626Z,7.1
2023-04-17T01:30:24.166Z,7.1
2023-04-17T01:31:26.249Z,7.2
2023-04-17T01:32:28.001Z,7.1
2023-04-17T01:33:29.405Z,7.2
2023-04-17T01:34:30.810Z,7.1
2023-04-17T01:35:32.349Z,7.1
2023-04-17T01:36:33.787Z,7.2
2023-04-17T01:37:35.302Z,7.2
2023-04-17T01:38:36.698Z,7.2
2023-04-17T01:39:38.027Z,7.2
2023-04-17T01:40:39.588Z,7.2
2023-04-17T01:41:40.962Z,7.2
2023-04-17T01:42:42.491Z,7.2
2023-04-17T01:43:44.107Z,7.2
2023-04-17T01:44:45.643Z,7.3
2023-04-17T01:45:47.444Z,7.3
2023-04-17T01:46:48.898Z,7.4
2023-04-17T01:47:50.866Z,7.5
2023-04-17T01:48:52.346Z,7.6
2023-04-17T01:49:53.758Z,7.7
2023-04-17T01:50:55.125Z,7.8
2023-04-17T01:51:56.562Z,7.9
2023-04-17T01:52:58.079Z,7.9
2023-04-17T01:53:59.614Z,7.9
2023-04-17T01:55:01.247Z,7.5
2023-04-17T01:56:02.928Z,7.6
2023-04-17T01:57:04.543Z,7.7
2023-04-17T01:58:05.945Z,7.8
2023-04-17T01:59:07.485Z,7.9
2023-04-17T02:00:09.015Z,7.2
2023-04-17T02:01:10.623Z,7.4
2023-04-17T02:02:13.046Z,7.4
2023-04-17T02:03:15.681Z,7.5
2023-04-17T02:04:17.855Z,7.6
2023-04-17T02:05:19.326Z,7.7
2023-04-17T02:06:20.907Z,7.8
2023-04-17T02:07:22.266Z,7.8
2023-04-17T02:08:23.779Z,7.9
2023-04-17T02:09:25.298Z,7.9
2023-04-17T02:10:26.853Z,7.9
2023-04-17T02:11:28.317Z,7.9
2023-04-17T02:12:29.859Z,7.9
2023-04-17T02:13:31.312Z,7.9
2023-04-17T02:14:32.829Z,7.9
2023-04-17T02:15:34.561Z,7.9
2023-04-17T02:16:36.262Z,7.9
2023-04-17T02:17:38.083Z,7.9
2023-04-17T02:18:39.623Z,7.9
2023-04-17T02:19:41.115Z,7.9
2023-04-17T02:20:42.420Z,7.9
2023-04-17T02:21:43.921Z,7.9
2023-04-17T02:22:45.435Z,7.2
2023-04-17T02:23:47.006Z,7.2
2023-04-17T02:24:48.572Z,7.2
2023-04-17T02:25:50.167Z,7.2
2023-04-17T02:26:51.681Z,7.2
2023-04-17T02:27:53.210Z,7.2
2023-04-17T02:28:54.768Z,7.1
2023-04-17T02:29:56.293Z,7.1
2023-04-17T02:30:58.079Z,7.1
2023-04-17T02:31:59.601Z,7.1
2023-04-17T02:33:01.573Z,7.1
2023-04-17T02:34:03.187Z,7.1
2023-04-17T02:35:04.678Z,7.1
2023-04-17T02:36:06.230Z,7.1
2023-04-17T02:37:07.684Z,7.1
2023-04-17T02:38:09.130Z,7.1
2023-04-17T02:39:12.190Z,7.1
2023-04-17T02:40:13.918Z,7.1
2023-04-17T02:41:15.536Z,7.1
2023-04-17T02:42:17.107Z,7.1
2023-04-17T02:43:18.525Z,7.1
2023-04-17T02:44:19.976Z,7.1
2023-04-17T02:45:21.432Z,7.1
2023-04-17T02:46:23.228Z,7.1
2023-04-17T02:47:24.797Z,7.1
2023-04-17T02:48:26.440Z,7.1
2023-04-17T02:49:27.863Z,7.2
2023-04-17T02:50:29.361Z,7.1
2023-04-17T02:51:30.905Z,7.2
2023-04-17T02:52:32.316Z,7.2
2023-04-17T02:53:33.832Z,7.2
2023-04-17T02:54:35.263Z,7.2
2023-04-17T02:55:36.892Z,7.2
2023-04-17T02:56:38.510Z,7.2
2023-04-17T02:57:39.942Z,7.2
2023-04-17T02:58:41.459Z,7.2
2023-04-17T02:59:42.883Z,7.3
2023-04-17T03:00:44.805Z,7.3
2023-04-17T03:01:46.533Z,7.4
2023-04-17T03:02:48.956Z,7.5
2023-04-17T03:03:52.032Z,7.6
2023-04-17T03:04:53.525Z,7.7
2023-04-17T03:05:55.048Z,7.8
2023-04-17T03:06:56.579Z,7.9
2023-04-17T03:07:58.087Z,7.3
2023-04-17T03:08:59.629Z,7.4
2023-04-17T03:10:01.127Z,7.6
2023-04-17T03:11:02.684Z,7.7
2023-04-17T03:12:04.285Z,7.8
2023-04-17T03:13:05.792Z,7.9
2023-04-17T03:14:07.319Z,7.9
2023-04-17T03:15:10.354Z,7.9
2023-04-17T03:16:11.933Z,7.3
2023-04-17T03:17:13.313Z,7.4
2023-04-17T03:18:14.737Z,7.6
2023-04-17T03:19:16.248Z,7.7
2023-04-17T03:20:17.793Z,7.8
2023-04-17T03:21:19.304Z,7.8
2023-04-17T03:22:20.805Z,7.9
2023-04-17T03:23:22.266Z,7.9
2023-04-17T03:24:23.819Z,7.9
2023-04-17T03:25:25.336Z,7.9
2023-04-17T03:26:26.904Z,7.9
2023-04-17T03:27:28.404Z,7.9
2023-04-17T03:28:29.942Z,7.9
2023-04-17T03:29:31.327Z,7.9
2023-04-17T03:30:32.882Z,7.9
2023-04-17T03:31:34.685Z,7.9
2023-04-17T03:32:36.379Z,7.9
2023-04-17T03:33:37.973Z,7.9
2023-04-17T03:34:39.466Z,7.9
2023-04-17T03:35:40.889Z,7.9
2023-04-17T03:36:42.375Z,7.9
2023-04-17T03:37:43.954Z,7.9
2023-04-17T03:38:45.502Z,7.9
2023-04-17T03:39:47.155Z,7.9
2023-04-17T03:40:48.543Z,7.9
2023-04-17T03:41:50.140Z,7.9
2023-04-17T03:42:51.709Z,7.9
2023-04-17T03:43:53.186Z,7.8
2023-04-17T03:44:55.484Z,7.8
2023-04-17T03:45:57.312Z,7.8
2023-04-17T03:46:58.781Z,7.8
2023-04-17T03:48:00.525Z,7.8
2023-04-17T03:49:02.287Z,7.8
2023-04-17T03:50:03.624Z,7.8
2023-04-17T03:51:05.053Z,7.8
2023-04-17T03:52:06.464Z,7.8
2023-04-17T03:53:07.991Z,7.8
2023-04-17T03:54:09.530Z,7.9
2023-04-17T03:55:10.928Z,7.8
2023-04-17T03:56:12.367Z,7.8
2023-04-17T03:57:13.789Z,7.8
2023-04-17T03:58:15.286Z,7.9
2023-04-17T03:59:16.890Z,7.8
2023-04-17T04:00:18.434Z,7.8
2023-04-17T04:01:20.090Z,7.8
2023-04-17T04:02:22.259Z,7.8
2023-04-17T04:03:25.324Z,7.8
2023-04-17T04:04:28.793Z,7.7
2023-04-17T04:05:30.639Z,7.7
2023-04-17T04:06:32.196Z,7.6
2023-04-17T04:07:33.749Z,7.4
2023-04-17T04:08:35.177Z,7.3
2023-04-17T04:09:36.747Z,7.1
2023-04-17T04:10:38.150Z,7.1
2023-04-17T04:11:39.654Z,7.1
2023-04-17T04:12:41.301Z,7.1
2023-04-17T04:13:42.875Z,7.2
2023-04-17T04:14:44.487Z,7.1
2023-04-17T04:15:46.319Z,7.1
2023-04-17T04:16:48.071Z,7.1
2023-04-17T04:17:49.812Z,7.1
2023-04-17T04:18:51.234Z,7.1
2023-04-17T04:19:52.738Z,7.1
2023-04-17T04:20:54.370Z,7.1
2023-04-17T04:21:55.930Z,7.1
2023-04-17T04:22:57.471Z,7.1
2023-04-17T04:23:58.984Z,7.1
2023-04-17T04:25:00.415Z,7.1
2023-04-17T04:26:02.126Z,7.1
2023-04-17T04:27:03.739Z,7.1
2023-04-17T04:28:05.252Z,7.1
2023-04-17T04:29:09.116Z,7.2
2023-04-17T04:30:11.229Z,7.1
2023-04-17T04:31:12.876Z,7.1
2023-04-17T04:32:14.313Z,7.2
2023-04-17T04:33:15.783Z,7.1
2023-04-17T04:34:17.291Z,7.2
2023-04-17T04:35:18.909Z,7.2
2023-04-17T04:36:20.529Z,7.2
2023-04-17T04:37:22.064Z,7.2
2023-04-17T04:38:23.602Z,7.2
2023-04-17T04:39:24.996Z,7.2
2023-04-17T04:40:26.514Z,7.3
2023-04-17T04:41:28.069Z,7.3
2023-04-17T04:42:29.588Z,7.3
2023-04-17T04:43:31.178Z,7.4
2023-04-17T04:44:32.764Z,7.4
2023-04-17T04:45:34.394Z,7.5
2023-04-17T04:46:36.075Z,7.6
2023-04-17T04:47:37.911Z,7.7
2023-04-17T04:48:44.202Z,7.9
2023-04-17T04:49:45.736Z,7.9
2023-04-17T04:50:47.284Z,7.2
2023-04-17T04:51:48.829Z,7.4
2023-04-17T04:52:50.391Z,7.5
2023-04-17T04:53:51.962Z,7.7
2023-04-17T04:54:53.535Z,7.8
2023-04-17T04:55:55.069Z,7.8
2023-04-17T04:56:56.665Z,7.9
2023-04-17T04:57:58.088Z,7.9
2023-04-17T04:58:59.510Z,7.9
2023-04-17T05:00:01.136Z,7.9
2023-04-17T05:01:02.895Z,7.8
2023-04-17T05:02:05.133Z,7.9
2023-04-17T05:03:08.566Z,7.9
2023-04-17T05:04:10.974Z,7.9
2023-04-17T05:05:12.535Z,7.9
2023-04-17T05:06:14.064Z,7.8
2023-04-17T05:07:15.658Z,7.8
2023-04-17T05:08:17.275Z,7.9
2023-04-17T05:09:20.165Z,7.9
2023-04-17T05:10:21.744Z,7.8
2023-04-17T05:11:23.329Z,7.9
2023-04-17T05:12:24.917Z,7.9
2023-04-17T05:13:26.511Z,7.9
2023-04-17T05:14:28.107Z,7.9
2023-04-17T05:15:29.731Z,7.9
2023-04-17T05:16:31.760Z,7.9
2023-04-17T05:17:33.543Z,7.9
2023-04-17T05:18:35.196Z,7.9
2023-04-17T05:19:36.762Z,7.9
2023-04-17T05:20:38.178Z,7.9
2023-04-17T05:21:39.625Z,7.9
2023-04-17T05:22:41.213Z,7.9
2023-04-17T05:23:42.755Z,7.9
2023-04-17T05:24:44.362Z,7.9
2023-04-17T05:25:45.907Z,7.8
2023-04-17T05:26:47.463Z,7.8
2023-04-17T05:27:49.084Z,7.8
2023-04-17T05:28:50.524Z,7.8
2023-04-17T05:29:52.183Z,7.8
2023-04-17T05:30:53.843Z,7.7
2023-04-17T05:31:55.846Z,7.7
2023-04-17T05:32:57.866Z,7.7
2023-04-17T05:33:59.527Z,7.6
2023-04-17T05:35:00.980Z,7.6
2023-04-17T05:36:02.583Z,7.5
2023-04-17T05:37:04.026Z,7.5
2023-04-17T05:38:05.432Z,7.4
2023-04-17T05:39:07.005Z,7.4
2023-04-17T05:40:08.531Z,7.3
2023-04-17T05:41:10.098Z,7.3
2023-04-17T05:42:11.628Z,7.3
2023-04-17T05:43:13.287Z,7.2
2023-04-17T05:44:14.702Z,7.2
2023-04-17T05:45:16.370Z,7.2
2023-04-17T05:46:18.243Z,7.2
2023-04-17T05:47:20.266Z,7.2
2023-04-17T05:48:21.861Z,7.2
2023-04-17T05:49:23.555Z,7.2
2023-04-17T05:50:25.013Z,7.2
2023-04-17T05:51:26.637Z,7.2
2023-04-17T05:52:28.027Z,7.2
2023-04-17T05:53:29.449Z,7.2
2023-04-17T05:54:31.019Z,7.2
2023-04-17T05:55:32.610Z,7.2
2023-04-17T05:56:34.123Z,7.2
2023-04-17T05:57:35.745Z,7.2
2023-04-17T05:58:37.218Z,7.2
2023-04-17T05:59:38.787Z,7.2
2023-04-17T06:00:40.379Z,7.2
2023-04-17T06:01:42.136Z,7.3
2023-04-17T06:02:45.222Z,7.3
2023-04-17T06:03:48.393Z,7.4
2023-04-17T06:04:51.674Z,7.4
2023-04-17T06:05:54.544Z,7.4
2023-04-17T06:06:56.375Z,7.5
2023-04-17T06:07:57.861Z,7.5
2023-04-17T06:08:59.393Z,7.5
2023-04-17T06:10:00.802Z,7.6
2023-04-17T06:11:02.133Z,7.6
2023-04-17T06:12:03.543Z,7.7
2023-04-17T06:13:05.098Z,7.7
2023-04-17T06:14:06.695Z,7.8
2023-04-17T06:15:10.474Z,7.8
2023-04-17T06:16:12.177Z,7.8
2023-04-17T06:17:14.391Z,7.8
2023-04-17T06:18:16.185Z,7.7
2023-04-17T06:19:17.761Z,7.6
2023-04-17T06:20:19.338Z,7.5
2023-04-17T06:21:20.780Z,7.4
2023-04-17T06:22:22.318Z,7.3
2023-04-17T06:23:23.906Z,7.1
2023-04-17T06:24:25.434Z,7.1
2023-04-17T06:25:26.988Z,7.1
2023-04-17T06:26:28.532Z,7.1
2023-04-17T06:27:30.080Z,7.1
2023-04-17T06:28:31.632Z,7.1
2023-04-17T06:29:33.169Z,7.1
2023-04-17T06:30:34.930Z,7.1
2023-04-17T06:31:37.413Z,7.1
2023-04-17T06:32:39.172Z,7.1
2023-04-17T06:33:40.736Z,7.1
2023-04-17T06:35:00.905Z,7.1
2023-04-17T06:36:02.502Z,7.1
2023-04-17T06:37:03.902Z,7.1
2023-04-17T06:38:05.429Z,7.1
2023-04-17T06:39:06.949Z,7.1
2023-04-17T06:40:08.581Z,7.1
2023-04-17T06:41:09.966Z,7.1
2023-04-17T06:42:11.518Z,7.2
2023-04-17T06:43:13.127Z,7.2
2023-04-17T06:44:14.678Z,7.2
2023-04-17T06:45:16.341Z,7.2
2023-04-17T06:46:17.994Z,7.2
2023-04-17T06:47:19.916Z,7.2
2023-04-17T06:48:21.547Z,7.3
2023-04-17T06:49:23.130Z,7.3
2023-04-17T06:50:24.784Z,7.4
2023-04-17T06:51:26.275Z,7.5
2023-04-17T06:52:27.896Z,7.6
2023-04-17T06:53:29.496Z,7.8
2023-04-17T06:54:30.914Z,7.9
2023-04-17T06:55:32.335Z,7.9
2023-04-17T06:56:33.756Z,7.9
2023-04-17T06:57:35.150Z,7.9
2023-04-17T06:58:36.597Z,7.9
2023-04-17T06:59:38.181Z,7.9
2023-04-17T07:00:39.761Z,7.9
2023-04-17T07:01:41.656Z,7.9
2023-04-17T07:02:43.950Z,7.9
2023-04-17T07:03:47.070Z,7.9
2023-04-17T07:04:49.190Z,7.9
2023-04-17T07:05:50.670Z,7.5
2023-04-17T07:06:52.253Z,7.7
2023-04-17T07:07:53.796Z,7.8
2023-04-17T07:08:57.048Z,7.9
2023-04-17T07:09:58.503Z,7.9
2023-04-17T07:11:00.050Z,7.9
2023-04-17T07:12:01.595Z,7.5
2023-04-17T07:13:03.214Z,7.6
2023-04-17T07:14:04.790Z,7.7
2023-04-17T07:15:06.695Z,7.8
2023-04-17T07:16:08.745Z,7.8
2023-04-17T07:17:10.315Z,7.9
2023-04-17T07:18:12.188Z,7.9
2023-04-17T07:19:15.431Z,7.9
2023-04-17T07:20:16.920Z,7.9
2023-04-17T07:21:18.479Z,7.9
2023-04-17T07:22:20.106Z,7.9
2023-04-17T07:23:21.662Z,7.9
2023-04-17T07:24:23.091Z,7.9
2023-04-17T07:25:24.701Z,7.8
2023-04-17T07:26:26.089Z,7.8
2023-04-17T07:27:27.526Z,7.8
2023-04-17T07:28:29.085Z,7.8
2023-04-17T07:29:30.625Z,7.8
2023-04-17T07:30:32.086Z,7.9
2023-04-17T07:31:34.022Z,7.9
2023-04-17T07:32:36.059Z,7.8
2023-04-17T07:33:41.843Z,7.8
2023-04-17T07:34:43.536Z,7.8
2023-04-17T07:35:45.434Z,7.8
2023-04-17T07:36:46.755Z,7.8
2023-04-17T07:37:48.517Z,7.8
2023-04-17T07:38:50.065Z,7.8
2023-04-17T07:39:51.753Z,7.8
2023-04-17T07:40:53.382Z,7.8
2023-04-17T07:41:54.815Z,7.8
2023-04-17T07:42:56.325Z,7.8
2023-04-17T07:44:00.568Z,7.7
2023-04-17T07:45:02.127Z,7.7
2023-04-17T07:46:03.593Z,7.7
2023-04-17T07:47:05.473Z,7.7
2023-04-17T07:48:07.509Z,7.6
2023-04-17T07:49:14.640Z,7.6
2023-04-17T07:50:16.528Z,7.6
2023-04-17T07:51:18.137Z,7.6
2023-04-17T07:52:19.881Z,7.6
2023-04-17T07:53:21.587Z,7.6
2023-04-17T07:54:23.057Z,7.5
2023-04-17T07:55:24.634Z,7.5
2023-04-17T07:56:26.195Z,7.4
2023-04-17T07:57:27.619Z,7.4
2023-04-17T07:58:29.179Z,7.3
2023-04-17T07:59:30.679Z,7.2
2023-04-17T08:00:32.232Z,7.2
2023-04-17T08:01:33.718Z,7.2
2023-04-17T08:02:36.479Z,7.2
2023-04-17T08:03:39.703Z,7.1
2023-04-17T08:04:42.292Z,7.2
2023-04-17T08:05:44.018Z,7.2
2023-04-17T08:06:45.476Z,7.2
2023-04-17T08:07:47.038Z,7.2
2023-04-17T08:08:48.686Z,7.1
2023-04-17T08:09:50.269Z,7.1
2023-04-17T08:10:51.856Z,7.1
2023-04-17T08:27:26.464Z,7.2
2023-04-17T08:28:28.111Z,7.2
2023-04-17T08:29:29.694Z,7.2
2023-04-17T08:30:31.384Z,7.2
2023-04-17T08:31:33.221Z,7.3
2023-04-17T08:32:35.005Z,7.3
2023-04-17T08:33:36.516Z,7.4
2023-04-17T08:34:38.135Z,7.4
2023-04-17T08:35:39.668Z,7.5
2023-04-17T08:36:41.515Z,7.6
2023-04-17T08:37:43.061Z,7.7
2023-04-17T08:38:44.420Z,7.8
2023-04-17T08:39:46.025Z,7.9
2023-04-17T08:40:47.657Z,7.9
2023-04-17T08:41:49.259Z,7.9
2023-04-17T08:42:50.811Z,7.9
2023-04-17T08:43:52.154Z,7.9
2023-04-17T08:44:53.591Z,7.9
2023-04-17T08:45:56.393Z,7.9
2023-04-17T08:46:57.863Z,7.3
2023-04-17T08:47:59.801Z,7.4
2023-04-17T08:49:01.411Z,7.5
2023-04-17T08:50:03.204Z,7.6
2023-04-17T08:51:04.815Z,7.6
2023-04-17T08:52:06.420Z,7.7
2023-04-17T08:53:07.995Z,7.8
2023-04-17T08:54:09.545Z,7.8
2023-04-17T08:55:11.052Z,7.9
2023-04-17T08:56:12.467Z,7.9
2023-04-17T08:57:14.033Z,7.9
2023-04-17T08:58:15.696Z,7.9
2023-04-17T08:59:17.346Z,7.9
2023-04-17T09:00:18.945Z,7.9
2023-04-17T09:01:20.716Z,7.9
2023-04-17T09:09:40.718Z,7.2
2023-04-17T09:10:42.277Z,7.1
2023-04-17T09:11:43.915Z,7.1
2023-04-17T09:12:45.504Z,7.1
2023-04-17T09:13:46.968Z,7.1
2023-04-17T09:14:48.491Z,7.1
2023-04-17T09:15:50.324Z,7.1
2023-04-17T09:16:51.950Z,7.1
2023-04-17T09:17:53.832Z,7.1
2023-04-17T09:18:55.362Z,7.1
2023-04-17T09:19:57.122Z,7.1
2023-04-17T09:20:58.541Z,7.1
2023-04-17T09:21:59.910Z,7.2
2023-04-17T09:23:01.565Z,7.1
2023-04-17T09:24:03.395Z,7.1
2023-04-17T09:25:05.057Z,7.2
2023-04-17T09:26:06.700Z,7.2
2023-04-17T09:27:08.274Z,7.2
2023-04-17T09:28:09.720Z,7.2
2023-04-17T09:29:14.229Z,7.2
2023-04-17T09:30:16.075Z,7.2
2023-04-17T09:31:17.870Z,7.3
2023-04-17T09:32:19.695Z,7.3
2023-04-17T09:33:21.298Z,7.3
2023-04-17T09:34:22.921Z,7.4
2023-04-17T09:35:24.537Z,7.5
2023-04-17T09:36:26.089Z,7.6
2023-04-17T09:37:27.733Z,7.7
2023-04-17T09:38:29.206Z,7.8
2023-04-17T09:39:30.728Z,7.9
2023-04-17T09:40:32.283Z,7.9
2023-04-17T09:41:33.964Z,7.9
2023-04-17T09:42:35.520Z,7.9
2023-04-17T09:43:37.181Z,7.9
2023-04-17T09:44:38.849Z,7.9
2023-04-17T09:45:40.479Z,7.9
2023-04-17T09:46:42.517Z,7.9
2023-04-17T09:47:44.393Z,7.9
2023-04-17T09:48:46.084Z,7.9
2023-04-17T09:49:47.737Z,7.9
2023-04-17T09:50:49.416Z,7.9
2023-04-17T09:51:50.875Z,7.9
2023-04-17T09:52:52.443Z,7.9
2023-04-17T09:53:54.026Z,7.9
2023-04-17T09:54:55.597Z,7.9
2023-04-17T09:55:57.148Z,7.9
2023-04-17T09:56:58.774Z,7.9
2023-04-17T09:58:00.208Z,7.9
2023-04-17T09:59:01.729Z,7.9
2023-04-17T10:00:03.370Z,7.9
2023-04-17T10:01:05.271Z,7.9
2023-04-17T10:02:07.498Z,7.9
2023-04-17T10:03:10.773Z,7.9
2023-04-17T10:06:18.750Z,7.9
2023-04-17T10:07:20.366Z,7.9
2023-04-17T10:08:21.688Z,7.9
2023-04-17T10:09:23.146Z,7.8
2023-04-17T10:10:24.706Z,7.8
2023-04-17T10:11:26.140Z,7.8
2023-04-17T10:12:27.687Z,7.8
2023-04-17T10:13:29.225Z,7.8
2023-04-17T10:14:30.655Z,7.8
2023-04-17T10:15:32.308Z,7.9
2023-04-17T10:16:34.215Z,7.8
2023-04-17T10:17:36.384Z,7.9
2023-04-17T10:18:37.959Z,7.9
2023-04-17T10:19:39.487Z,7.9
2023-04-17T10:20:41.080Z,7.9
2023-04-17T10:21:42.642Z,7.9
2023-04-17T10:22:44.290Z,7.9
2023-04-17T10:23:45.724Z,7.8
2023-04-17T10:24:47.574Z,7.9
2023-04-17T10:25:49.343Z,7.8
2023-04-17T10:26:50.981Z,7.8
2023-04-17T10:27:52.814Z,7.8
2023-04-17T10:28:54.276Z,7.8
2023-04-17T10:29:55.903Z,7.8
2023-04-17T10:30:57.585Z,7.8
2023-04-17T10:31:59.362Z,7.8
2023-04-17T10:33:01.073Z,7.8
2023-04-17T10:34:02.794Z,7.9
2023-04-17T10:35:04.169Z,7.2
2023-04-17T10:36:05.648Z,7.3
2023-04-17T10:37:07.378Z,7.3
2023-04-17T10:38:08.834Z,7.3
2023-04-17T10:39:11.570Z,7.3
2023-04-17T10:40:15.901Z,7.2
2023-04-17T10:41:17.394Z,7.2
2023-04-17T10:42:18.936Z,7.1
2023-04-17T10:43:20.482Z,7.1
2023-04-17T10:44:22.042Z,7.1
2023-04-17T10:45:23.543Z,7.1
2023-04-17T10:46:25.446Z,7.1
2023-04-17T10:47:27.064Z,7.2
2023-04-17T10:48:28.927Z,7.2
2023-04-17T10:49:30.517Z,7.1
2023-04-17T10:50:32.070Z,7.1
2023-04-17T10:51:33.496Z,7.1
2023-04-17T10:52:35.641Z,7.1
2023-04-17T10:53:37.241Z,7.1
2023-04-17T10:54:38.876Z,7.1
2023-04-17T10:55:40.856Z,7.1
2023-04-17T10:56:42.665Z,7.1
2023-04-17T10:57:44.242Z,7.1
2023-04-17T10:58:45.551Z,7.1
2023-04-17T10:59:47.107Z,7.1
2023-04-17T11:00:48.534Z,7.1
2023-04-17T11:01:50.753Z,7.2
2023-04-17T11:02:53.012Z,7.2
2023-04-17T11:03:54.696Z,7.2
2023-04-17T11:04:56.527Z,7.2
2023-04-17T11:05:58.078Z,7.2
2023-04-17T11:06:59.717Z,7.2
2023-04-17T11:08:01.406Z,7.2
2023-04-17T11:09:02.941Z,7.2
2023-04-17T11:10:04.438Z,7.3
2023-04-17T11:11:05.964Z,7.3
2023-04-17T11:12:07.679Z,7.4
2023-04-17T11:13:09.199Z,7.5
2023-04-17T11:16:18.860Z,7.8
2023-04-17T11:17:20.592Z,7.9
2023-04-17T11:18:22.052Z,7.9
2023-04-17T11:19:23.633Z,7.9
2023-04-17T11:20:25.183Z,7.5
2023-04-17T11:21:26.913Z,7.7
2023-04-17T11:22:28.323Z,7.8
2023-04-17T11:23:29.885Z,7.9
2023-04-17T11:24:31.687Z,7.9
2023-04-17T11:25:33.458Z,7.8
2023-04-17T11:26:35.191Z,7.9
2023-04-17T11:27:36.653Z,7.9
2023-04-17T11:28:38.186Z,7.3
2023-04-17T11:29:39.588Z,7.4
2023-04-17T11:30:41.395Z,7.5
2023-04-17T11:31:43.862Z,7.6
2023-04-17T11:32:46.012Z,7.8
2023-04-17T11:33:47.767Z,7.8
2023-04-17T11:34:49.650Z,7.9
2023-04-17T11:35:51.461Z,7.9
2023-04-17T11:36:53.338Z,7.9
2023-04-17T11:37:54.979Z,7.9
2023-04-17T11:38:56.830Z,7.9
2023-04-17T11:39:58.290Z,7.9
2023-04-17T11:40:59.823Z,7.9
2023-04-17T11:42:01.635Z,7.9
2023-04-17T11:43:03.122Z,7.9
2023-04-17T11:44:04.696Z,7.9
2023-04-17T11:45:06.470Z,7.9
2023-04-17T11:46:08.163Z,7.9
2023-04-17T11:47:09.649Z,7.9
2023-04-17T11:48:11.078Z,7.9
2023-04-17T11:49:14.246Z,7.2
2023-04-17T11:50:16.174Z,7.2
2023-04-17T11:51:17.991Z,7.3
2023-04-17T11:52:19.545Z,7.3
2023-04-17T11:53:21.134Z,7.3
2023-04-17T11:54:22.753Z,7.4
2023-04-17T11:55:24.343Z,7.4
2023-04-17T11:56:26.000Z,7.4
2023-04-17T11:57:27.599Z,7.4
2023-04-17T12:01:36.194Z,7.5
2023-04-17T12:04:46.381Z,7.4
2023-04-17T12:05:48.599Z,7.3
2023-04-17T12:06:50.212Z,7.3
2023-04-17T12:07:51.567Z,7.3
2023-04-17T12:08:53.038Z,7.2
2023-04-17T12:09:54.584Z,7.2
2023-04-17T12:10:56.151Z,7.2
2023-04-17T12:11:57.707Z,7.2
2023-04-17T12:12:59.316Z,7.2
2023-04-17T12:14:00.962Z,7.3
2023-04-17T12:15:02.586Z,7.3
2023-04-17T12:16:04.370Z,7.3
2023-04-17T12:17:05.897Z,7.3
2023-04-17T12:18:07.679Z,7.3
2023-04-17T12:19:09.125Z,7.4
2023-04-17T12:20:10.842Z,7.4
2023-04-17T12:21:12.536Z,7.4
2023-04-17T12:22:14.123Z,7.5
2023-04-17T12:23:15.697Z,7.5
2023-04-17T12:24:17.308Z,7.5
2023-04-17T12:25:18.926Z,7.5
2023-04-17T12:26:20.575Z,7.6
2023-04-17T12:27:22.208Z,7.5
2023-04-17T12:28:23.923Z,7.5
2023-04-17T13:07:43.448Z,7.9
2023-04-17T13:08:44.871Z,7.9
2023-04-17T13:09:46.437Z,7.9
2023-04-17T13:10:47.772Z,7.9
2023-04-17T13:11:49.405Z,7.9
2023-04-17T13:12:50.848Z,7.4
2023-04-17T13:13:52.413Z,7.5
2023-04-17T13:14:53.897Z,7.6
2023-04-17T13:15:55.442Z,7.8
2023-04-17T13:16:57.305Z,7.9
2023-04-17T13:17:59.405Z,7.9
2023-04-17T13:19:00.923Z,7.9
2023-04-17T13:20:02.328Z,7.9
2023-04-17T13:21:03.902Z,7.9
2023-04-17T13:22:05.476Z,7.9
2023-04-17T13:23:07.035Z,7.9
2023-04-17T13:24:08.595Z,7.9
2023-04-17T13:25:10.149Z,7.9
2023-04-17T13:26:11.822Z,7.9
2023-04-17T13:27:13.502Z,7.9
2023-04-17T13:28:15.049Z,7.9
2023-04-17T13:35:31.592Z,7.9
2023-04-17T13:36:33.014Z,7.9
2023-04-17T13:37:34.538Z,7.9
2023-04-17T13:38:36.091Z,7.9
2023-04-17T13:39:37.413Z,7.9
2023-04-17T13:40:39.004Z,7.9
2023-04-17T13:41:40.493Z,7.9
2023-04-17T13:42:42.035Z,7.9
2023-04-17T13:43:43.583Z,7.9
2023-04-17T13:44:45.131Z,7.9
2023-04-17T13:45:46.911Z,7.9
2023-04-17T13:46:48.917Z,7.9
2023-04-17T13:47:50.842Z,7.9
2023-04-17T13:48:52.521Z,7.9
2023-04-17T13:49:54.121Z,7.9
2023-04-17T13:50:55.752Z,7.9
2023-04-17T13:51:57.217Z,7.9
2023-04-17T13:52:58.802Z,7.9
2023-04-17T13:54:00.133Z,7.8
2023-04-17T13:55:01.574Z,7.8
2023-04-17T13:56:03.067Z,7.8
2023-04-17T13:57:04.616Z,7.8
2023-04-17T13:58:06.288Z,7.8
2023-04-17T13:59:07.903Z,7.8
2023-04-17T14:00:09.597Z,7.8
2023-04-17T14:01:11.197Z,7.8
2023-04-17T14:02:13.409Z,7.8
2023-04-17T14:03:16.348Z,7.8
2023-04-17T14:04:19.779Z,7.8
2023-04-17T14:05:21.546Z,7.8
2023-04-17T14:06:22.862Z,7.8
2023-04-17T14:07:24.261Z,7.8
2023-04-17T14:08:25.589Z,7.8
2023-04-17T14:09:27.034Z,7.8
2023-04-17T14:10:28.649Z,7.7
2023-04-17T14:11:30.225Z,7.7
2023-04-17T14:12:31.766Z,7.6
2023-04-17T14:13:33.340Z,7.5
2023-04-17T14:14:34.753Z,7.4
2023-04-17T14:15:36.569Z,7.3
2023-04-17T14:16:38.166Z,7.2
2023-04-17T14:17:39.700Z,7.1
2023-04-17T14:18:41.241Z,7.1
2023-04-17T14:19:42.938Z,7.1
2023-04-17T14:20:44.376Z,7.1
2023-04-17T14:21:45.851Z,7.1
2023-04-17T14:22:47.478Z,7.1
2023-04-17T14:23:48.920Z,7.1
2023-04-17T14:24:50.569Z,7.1
2023-04-17T14:25:52.113Z,7.1
2023-04-17T14:26:53.678Z,7.1
2023-04-17T14:27:55.273Z,7.1
2023-04-17T14:28:56.941Z,7.1
2023-04-17T14:30:02.940Z,7.1
2023-04-17T14:32:06.541Z,7.1
2023-04-17T14:33:08.137Z,7.1
2023-04-17T14:34:09.821Z,7.1
2023-04-17T14:35:11.402Z,7.1
2023-04-17T14:36:12.696Z,7.1
2023-04-17T14:37:14.274Z,7.2
2023-04-17T14:38:15.780Z,7.2
2023-04-17T14:39:17.200Z,7.2
2023-04-17T14:40:18.597Z,7.2
2023-04-17T14:41:20.381Z,7.2
2023-04-17T14:42:21.776Z,7.2
2023-04-17T14:43:23.191Z,7.2
2023-04-17T14:44:24.833Z,7.2
2023-04-17T14:45:26.385Z,7.2
2023-04-17T14:46:28.316Z,7.2
2023-04-17T14:47:31.769Z,7.2
2023-04-17T19:49:41.598Z,7.6
2023-04-17T19:50:43.048Z,7.6
2023-04-17T19:51:44.608Z,7.7
2023-04-17T19:52:46.178Z,7.7
2023-04-17T19:53:47.594Z,7.7
2023-04-17T19:54:49.213Z,7.8
2023-04-17T19:55:50.748Z,7.8
2023-04-17T19:56:52.343Z,7.8
2023-04-17T19:57:53.839Z,7.8
2023-04-17T19:58:55.402Z,7.8
2023-04-17T19:59:56.910Z,7.8
2023-04-17T20:00:58.694Z,7.9
2023-04-17T20:02:00.216Z,7.9
2023-04-17T20:03:03.339Z,7.9
2023-04-17T20:04:05.515Z,7.9
2023-04-17T20:05:07.174Z,7.9
2023-04-17T20:06:08.826Z,7.9
2023-04-17T20:07:10.487Z,7.9
2023-04-17T20:08:12.068Z,7.9
2023-04-17T20:09:17.891Z,7.9
2023-04-17T20:10:19.620Z,7.9
2023-04-17T20:11:21.150Z,7.9
2023-04-17T20:12:22.773Z,7.8
2023-04-17T20:13:24.400Z,7.9
2023-04-17T20:14:25.898Z,7.9
2023-04-17T20:15:27.488Z,7.9
2023-04-17T20:16:29.474Z,7.9
2023-04-17T20:17:31.314Z,7.9
2023-04-17T20:18:32.904Z,7.9
2023-04-17T20:19:34.330Z,7.9
2023-04-17T20:20:38.291Z,7.9
2023-04-17T20:21:39.858Z,7.9
2023-04-17T20:22:41.388Z,7.9
2023-04-17T20:23:42.806Z,7.9
2023-04-17T20:24:44.280Z,7.9
2023-04-17T20:25:45.895Z,7.9
2023-04-17T20:26:47.348Z,7.9
2023-04-17T20:27:48.764Z,7.9
2023-04-17T20:28:50.130Z,7.9
2023-04-17T20:29:51.782Z,7.9